createdAt,value
2018-03-16T00:02:21.625Z,100014
2018-03-16T00:04:49.537Z,100016
2018-03-16T00:07:17.461Z,100024
2018-03-16T00:09:46.070Z,100018
2018-03-16T00:12:13.968Z,100020
2018-03-16T00:14:41.882Z,100021
2018-03-16T00:17:09.797Z,100022
2018-03-16T00:19:37.716Z,100018
2018-03-16T00:22:05.613Z,100032
2018-03-16T00:24:33.517Z,100038
2018-03-16T00:27:01.448Z,100037
2018-03-16T00:29:29.785Z,100038
2018-03-16T00:31:57.701Z,100048
2018-03-16T00:34:25.660Z,100049
2018-03-16T00:36:53.589Z,100042
2018-03-16T00:39:21.493Z,100050
2018-03-16T00:41:49.388Z,100050
2018-03-16T00:44:17.292Z,100055
2018-03-16T00:46:45.202Z,100052
2018-03-16T00:49:13.104Z,100052
2018-03-16T00:51:41.074Z,100052
2018-03-16T00:54:09.003Z,100066
2018-03-16T00:56:36.894Z,100055
2018-03-16T00:59:05.280Z,100058
2018-03-16T01:01:33.180Z,100054
2018-03-16T01:04:01.098Z,100068
2018-03-16T01:06:29.020Z,100065
2018-03-16T01:08:56.928Z,100058
2018-03-16T01:11:24.825Z,100064
2018-03-16T01:13:52.721Z,100066
2018-03-16T01:16:20.614Z,100070
2018-03-16T01:18:48.508Z,100064
2018-03-16T01:21:16.408Z,100076
2018-03-16T01:23:44.765Z,100068
2018-03-16T01:26:12.661Z,100077
2018-03-16T01:28:40.576Z,100058
2018-03-16T01:31:08.464Z,100057
2018-03-16T01:33:36.360Z,100054
2018-03-16T01:36:04.269Z,100057
2018-03-16T01:38:32.165Z,100043
2018-03-16T01:41:00.076Z,100060
2018-03-16T01:43:27.984Z,100053
2018-03-16T01:45:55.893Z,100053
2018-03-16T01:48:23.797Z,100061
2018-03-16T01:50:51.693Z,100050
2018-03-16T01:53:19.598Z,100065
2018-03-16T01:55:47.491Z,100063
2018-03-16T01:58:15.393Z,100067
2018-03-16T02:00:43.304Z,100063
2018-03-16T02:03:11.217Z,100055
2018-03-16T02:05:39.111Z,100054
2018-03-16T02:08:07.068Z,100051
2018-03-16T02:10:34.991Z,100048
2018-03-16T02:13:02.921Z,100053
2018-03-16T02:15:30.839Z,100060
2018-03-16T02:17:58.741Z,100060
2018-03-16T02:20:26.681Z,100056
2018-03-16T02:22:54.577Z,100052
2018-03-16T02:25:22.752Z,100052
2018-03-16T02:27:50.650Z,100060
2018-03-16T02:30:18.566Z,100060
2018-03-16T02:32:46.487Z,100059
2018-03-16T02:35:14.392Z,100053
2018-03-16T02:37:42.313Z,100051
2018-03-16T02:40:10.220Z,100051
2018-03-16T02:42:38.141Z,100042
2018-03-16T02:45:06.060Z,100054
2018-03-16T02:47:33.973Z,100045
2018-03-16T02:50:01.906Z,100049
2018-03-16T02:52:29.813Z,100045
2018-03-16T02:54:57.741Z,100056
2018-03-16T02:57:25.658Z,100052
2018-03-16T02:59:53.562Z,100042
2018-03-16T03:02:21.477Z,100045
2018-03-16T03:04:49.378Z,100049
2018-03-16T03:07:17.537Z,100044
2018-03-16T03:09:45.444Z,100041
2018-03-16T03:12:13.356Z,100053
2018-03-16T03:14:41.256Z,100041
2018-03-16T03:17:09.160Z,100052
2018-03-16T03:19:37.077Z,100050
2018-03-16T03:22:04.988Z,100059
2018-03-16T03:24:32.894Z,100057
2018-03-16T03:27:00.797Z,100060
2018-03-16T03:29:29.148Z,100052
2018-03-16T03:31:57.063Z,100061
2018-03-16T03:34:24.971Z,100075
2018-03-16T03:36:52.880Z,100074
2018-03-16T03:39:20.808Z,100069
2018-03-16T03:41:48.716Z,100075
2018-03-16T03:44:16.628Z,100077
2018-03-16T03:46:44.532Z,100065
2018-03-16T03:49:12.707Z,100082
2018-03-16T03:51:40.625Z,100062
2018-03-16T03:54:08.523Z,100070
2018-03-16T03:56:36.436Z,100081
2018-03-16T03:59:04.354Z,100077
2018-03-16T04:01:32.293Z,100097
2018-03-16T04:04:00.201Z,100088
2018-03-16T04:06:28.108Z,100082
2018-03-16T04:08:56.020Z,100079
2018-03-16T04:11:23.981Z,100092
2018-03-16T04:13:51.906Z,100091
2018-03-16T04:16:19.834Z,100082
2018-03-16T04:18:47.735Z,100092
2018-03-16T04:21:15.641Z,100095
2018-03-16T04:23:43.992Z,100084
2018-03-16T04:26:11.904Z,100086
2018-03-16T04:28:39.792Z,100086
2018-03-16T04:31:07.750Z,100098
2018-03-16T04:33:35.621Z,100089
2018-03-16T04:36:03.508Z,100103
2018-03-16T04:38:31.401Z,100103
2018-03-16T04:40:59.313Z,100092
2018-03-16T04:43:27.230Z,100099
2018-03-16T04:45:55.134Z,100107
2018-03-16T04:48:23.033Z,100105
2018-03-16T04:50:51.431Z,100101
2018-03-16T04:53:19.340Z,100106
2018-03-16T04:55:47.261Z,100111
2018-03-16T04:58:15.176Z,100119
2018-03-16T05:00:43.083Z,100122
2018-03-16T05:03:10.996Z,100117
2018-03-16T05:05:38.905Z,100126
2018-03-16T05:08:06.800Z,100112
2018-03-16T05:10:34.704Z,100122
2018-03-16T05:13:02.624Z,100125
2018-03-16T05:15:30.520Z,100130
2018-03-16T05:17:58.425Z,100129
2018-03-16T05:20:26.343Z,100136
2018-03-16T05:22:54.608Z,100132
2018-03-16T05:25:22.517Z,100133
2018-03-16T05:27:50.421Z,100147
2018-03-16T05:30:18.316Z,100138
2018-03-16T05:32:46.237Z,100140
2018-03-16T05:35:14.159Z,100139
2018-03-16T05:37:42.065Z,100146
2018-03-16T05:40:09.977Z,100150
2018-03-16T05:42:37.881Z,100159
2018-03-16T05:45:05.784Z,100157
2018-03-16T05:47:33.716Z,100154
2018-03-16T05:50:01.627Z,100170
2018-03-16T05:52:30.152Z,100170
2018-03-16T05:54:58.078Z,100164
2018-03-16T05:57:25.974Z,100181
2018-03-16T05:59:53.864Z,100171
2018-03-16T06:02:21.781Z,100169
2018-03-16T06:04:49.696Z,100167
2018-03-16T06:07:17.592Z,100173
2018-03-16T06:09:46.245Z,100186
2018-03-16T06:12:14.144Z,100179
2018-03-16T06:14:42.085Z,100184
2018-03-16T06:17:09.997Z,100176
2018-03-16T06:19:37.910Z,100189
2018-03-16T06:22:05.860Z,100182
2018-03-16T06:24:33.753Z,100204
2018-03-16T06:27:01.676Z,100188
2018-03-16T06:29:29.797Z,100195
2018-03-16T06:31:57.702Z,100162
2018-03-16T06:34:25.623Z,100199
2018-03-16T06:36:53.536Z,100207
2018-03-16T06:39:21.481Z,100200
2018-03-16T06:41:49.368Z,100205
2018-03-16T06:44:17.294Z,100210
2018-03-16T06:46:45.207Z,100217
2018-03-16T06:49:13.112Z,100221
2018-03-16T06:51:41.048Z,100207
2018-03-16T06:54:09.243Z,100225
2018-03-16T06:56:37.156Z,100227
2018-03-16T06:59:05.077Z,100230
2018-03-16T07:01:32.985Z,100225
2018-03-16T07:04:00.904Z,100228
2018-03-16T07:06:28.805Z,100232
2018-03-16T07:08:56.717Z,100238
2018-03-16T07:11:24.624Z,100248
2018-03-16T07:13:53.171Z,100241
2018-03-16T07:16:21.116Z,100240
2018-03-16T07:18:49.037Z,100251
2018-03-16T07:21:16.953Z,100245
2018-03-16T07:23:46.390Z,100246
2018-03-16T07:26:14.320Z,100240
2018-03-16T07:28:42.213Z,100212
2018-03-16T07:31:10.117Z,100258
2018-03-16T07:33:38.052Z,100257
2018-03-16T07:36:05.953Z,100257
2018-03-16T07:38:33.865Z,100264
2018-03-16T07:41:01.770Z,100276
2018-03-16T07:43:29.680Z,100282
2018-03-16T07:46:01.584Z,100286
2018-03-16T07:48:29.773Z,100278
2018-03-16T07:50:57.698Z,100287
2018-03-16T07:53:25.892Z,100280
2018-03-16T07:55:54.032Z,100297
2018-03-16T07:58:21.958Z,100283
2018-03-16T08:00:49.871Z,100284
2018-03-16T08:03:17.770Z,100288
2018-03-16T08:05:45.684Z,100280
2018-03-16T08:08:13.593Z,100287
2018-03-16T08:10:41.519Z,100289
2018-03-16T08:13:09.441Z,100282
2018-03-16T08:15:37.363Z,100287
2018-03-16T08:18:05.273Z,100290
2018-03-16T08:20:33.181Z,100289
2018-03-16T08:23:01.393Z,100291
2018-03-16T08:25:29.300Z,100294
2018-03-16T08:27:57.200Z,100281
2018-03-16T08:30:25.105Z,100289
2018-03-16T08:32:52.996Z,100295
2018-03-16T08:35:20.906Z,100303
2018-03-16T08:37:48.820Z,100301
2018-03-16T08:40:17.124Z,100300
2018-03-16T08:42:45.023Z,100312
2018-03-16T08:45:12.944Z,100309
2018-03-16T08:47:40.851Z,100304
2018-03-16T08:50:08.768Z,100300
2018-03-16T08:52:36.677Z,100303
2018-03-16T08:55:04.597Z,100290
2018-03-16T08:57:32.498Z,100304
2018-03-16T09:00:00.663Z,100301
2018-03-16T09:02:28.607Z,100300
2018-03-16T09:04:56.537Z,100311
2018-03-16T09:07:24.490Z,100318
2018-03-16T09:09:52.416Z,100312
2018-03-16T09:12:20.328Z,100314
2018-03-16T09:14:48.272Z,100320
2018-03-16T09:17:16.168Z,100323
2018-03-16T09:19:44.085Z,100318
2018-03-16T09:22:12.013Z,100334
2018-03-16T09:24:39.941Z,100323
2018-03-16T09:27:07.842Z,100333
2018-03-16T09:29:36.265Z,100341
2018-03-16T09:32:04.174Z,100318
2018-03-16T09:34:32.125Z,100341
2018-03-16T09:37:00.020Z,100341
2018-03-16T09:39:27.953Z,100330
2018-03-16T09:41:55.860Z,100347
2018-03-16T09:44:23.764Z,100353
2018-03-16T09:46:51.664Z,100356
2018-03-16T09:49:19.560Z,100355
2018-03-16T09:51:47.684Z,100358
2018-03-16T09:54:15.594Z,100356
2018-03-16T09:56:43.496Z,100355
2018-03-16T09:59:11.412Z,100361
2018-03-16T10:01:39.303Z,100369
2018-03-16T10:04:07.205Z,100373
2018-03-16T10:06:35.117Z,100368
2018-03-16T10:09:03.479Z,100364
2018-03-16T10:11:31.368Z,100369
2018-03-16T10:13:59.265Z,100371
2018-03-16T10:16:27.172Z,100376
2018-03-16T10:18:55.105Z,100377
2018-03-16T10:21:23.012Z,100369
2018-03-16T10:23:50.921Z,100380
2018-03-16T10:26:18.826Z,100388
2018-03-16T10:28:46.995Z,100376
2018-03-16T10:31:14.927Z,100379
2018-03-16T10:33:42.857Z,100373
2018-03-16T10:36:10.762Z,100388
2018-03-16T10:38:38.688Z,100384
2018-03-16T10:41:06.588Z,100386
2018-03-16T10:43:34.542Z,100390
2018-03-16T10:46:02.457Z,100375
2018-03-16T10:48:30.364Z,100387
2018-03-16T10:50:58.252Z,100395
2018-03-16T10:53:26.403Z,100403
2018-03-16T10:55:54.322Z,100401
2018-03-16T10:58:22.245Z,100405
2018-03-16T11:00:56.184Z,100401
2018-03-16T11:03:24.135Z,100414
2018-03-16T11:05:53.869Z,100420
2018-03-16T11:08:27.841Z,100419
2018-03-16T11:10:59.761Z,100422
2018-03-16T11:13:27.691Z,100412
2018-03-16T11:15:55.673Z,100422
2018-03-16T11:18:23.575Z,100421
2018-03-16T11:20:51.483Z,100423
2018-03-16T11:23:19.400Z,100424
2018-03-16T11:25:47.332Z,100442
2018-03-16T11:28:15.229Z,100427
2018-03-16T11:30:43.150Z,100429
2018-03-16T11:33:11.053Z,100423
2018-03-16T11:35:39.609Z,100423
2018-03-16T11:38:07.521Z,100430
2018-03-16T11:40:35.450Z,100423
2018-03-16T11:43:03.356Z,100426
2018-03-16T11:45:31.280Z,100426
2018-03-16T11:47:59.188Z,100434
2018-03-16T11:50:27.097Z,100432
2018-03-16T11:52:55.012Z,100433
2018-03-16T11:55:23.273Z,100447
2018-03-16T11:57:51.212Z,100440
2018-03-16T12:00:19.122Z,100435
2018-03-16T12:02:47.020Z,100435
2018-03-16T12:05:14.933Z,100432
2018-03-16T12:07:42.845Z,100448
2018-03-16T12:10:10.756Z,100436
2018-03-16T12:12:38.663Z,100443
2018-03-16T12:15:06.584Z,100440
2018-03-16T12:17:34.497Z,100441
2018-03-16T12:20:02.897Z,100439
2018-03-16T12:22:30.801Z,100444
2018-03-16T12:24:58.714Z,100447
2018-03-16T12:27:26.612Z,100437
2018-03-16T12:29:54.540Z,100442
2018-03-16T12:32:22.455Z,100442
2018-03-16T12:34:50.400Z,100448
2018-03-16T12:37:18.317Z,100442
2018-03-16T12:39:46.231Z,100442
2018-03-16T12:42:14.295Z,100440
2018-03-16T12:44:42.237Z,100438
2018-03-16T12:47:10.153Z,100446
2018-03-16T12:49:38.072Z,100448
2018-03-16T12:52:05.992Z,100450
2018-03-16T12:54:33.935Z,100450
2018-03-16T12:57:02.033Z,100445
2018-03-16T12:59:29.944Z,100443
2018-03-16T13:01:57.848Z,100444
2018-03-16T13:04:25.764Z,100441
2018-03-16T13:06:54.056Z,100440
2018-03-16T13:09:21.973Z,100438
2018-03-16T13:11:49.905Z,100437
2018-03-16T13:14:17.824Z,100443
2018-03-16T13:16:45.765Z,100458
2018-03-16T13:19:13.694Z,100441
2018-03-16T13:21:41.625Z,100468
2018-03-16T13:24:09.937Z,100450
2018-03-16T13:26:37.848Z,100440
2018-03-16T13:29:05.748Z,100456
2018-03-16T13:31:33.682Z,100435
2018-03-16T13:34:01.593Z,100443
2018-03-16T13:36:29.495Z,100440
2018-03-16T13:38:57.412Z,100462
2018-03-16T13:41:25.416Z,100458
2018-03-16T13:43:53.341Z,100451
2018-03-16T13:46:21.278Z,100451
2018-03-16T13:48:49.175Z,100460
2018-03-16T13:51:17.092Z,100441
2018-03-16T13:53:45.004Z,100460
2018-03-16T13:56:13.009Z,100449
2018-03-16T13:58:40.915Z,100461
2018-03-16T14:01:09.029Z,100455
2018-03-16T14:03:37.532Z,100465
2018-03-16T14:06:05.448Z,100457
2018-03-16T14:08:33.448Z,100454
2018-03-16T14:11:01.377Z,100456
2018-03-16T14:13:29.274Z,100471
2018-03-16T14:15:57.224Z,100452
2018-03-16T14:18:25.125Z,100490
2018-03-16T14:20:53.032Z,100471
2018-03-16T14:23:21.085Z,100478
2018-03-16T14:25:49.008Z,100473
2018-03-16T14:28:16.902Z,100492
2018-03-16T14:30:44.830Z,100485
2018-03-16T14:33:12.774Z,100486
2018-03-16T14:35:40.682Z,100486
2018-03-16T14:38:08.616Z,100497
2018-03-16T14:40:36.536Z,100482
2018-03-16T14:43:04.468Z,100490
2018-03-16T14:45:32.377Z,100503
2018-03-16T14:48:00.325Z,100495
2018-03-16T14:50:28.232Z,100502
2018-03-16T14:52:56.144Z,100498
2018-03-16T14:55:24.677Z,100495
2018-03-16T14:57:52.589Z,100503
2018-03-16T15:00:20.499Z,100507
2018-03-16T15:02:48.420Z,100502
2018-03-16T15:05:16.332Z,100511
2018-03-16T15:07:44.233Z,100509
2018-03-16T15:10:12.144Z,100505
2018-03-16T15:12:40.071Z,100518
2018-03-16T15:15:07.991Z,100520
2018-03-16T15:17:35.907Z,100511
2018-03-16T15:20:03.831Z,100516
2018-03-16T15:22:31.744Z,100520
2018-03-16T15:24:59.877Z,100515
2018-03-16T15:27:27.847Z,100515
2018-03-16T15:29:55.747Z,100525
2018-03-16T15:32:23.675Z,100529
2018-03-16T15:34:51.638Z,100533
2018-03-16T15:37:19.560Z,100536
2018-03-16T15:39:47.486Z,100520
2018-03-16T15:42:15.388Z,100545
2018-03-16T15:44:43.289Z,100536
2018-03-16T15:47:11.196Z,100544
2018-03-16T15:49:39.692Z,100539
2018-03-16T15:52:07.600Z,100554
2018-03-16T15:54:35.534Z,100546
2018-03-16T15:57:03.508Z,100565
2018-03-16T15:59:31.412Z,100560
2018-03-16T16:01:59.336Z,100574
2018-03-16T16:04:27.261Z,100563
2018-03-16T16:06:55.173Z,100556
2018-03-16T16:09:23.098Z,100560
2018-03-16T16:11:51.016Z,100559
2018-03-16T16:14:18.940Z,100575
2018-03-16T16:16:46.864Z,100578
2018-03-16T16:19:14.773Z,100586
2018-03-16T16:21:42.888Z,100587
2018-03-16T16:24:10.813Z,100590
2018-03-16T16:26:38.764Z,100580
2018-03-16T16:29:06.681Z,100600
2018-03-16T16:31:34.600Z,100596
2018-03-16T16:34:02.512Z,100600
2018-03-16T16:36:30.440Z,100623
2018-03-16T16:38:58.368Z,100615
2018-03-16T16:41:26.272Z,100621
2018-03-16T16:43:54.168Z,100626
2018-03-16T16:46:22.069Z,100617
2018-03-16T16:48:49.977Z,100619
2018-03-16T16:51:18.329Z,100623
2018-03-16T16:53:46.235Z,100627
2018-03-16T16:56:14.140Z,100630
2018-03-16T16:58:42.046Z,100638
2018-03-16T17:01:09.944Z,100641
2018-03-16T17:03:37.840Z,100644
2018-03-16T17:06:05.746Z,100645
2018-03-16T17:08:34.088Z,100652
2018-03-16T17:11:02.016Z,100655
2018-03-16T17:13:29.898Z,100656
2018-03-16T17:15:57.794Z,100656
2018-03-16T17:18:25.700Z,100661
2018-03-16T17:20:53.641Z,100675
2018-03-16T17:23:21.553Z,100676
2018-03-16T17:25:49.468Z,100687
2018-03-16T17:28:17.745Z,100686
2018-03-16T17:30:45.640Z,100679
2018-03-16T17:33:13.544Z,100689
2018-03-16T17:35:41.449Z,100682
2018-03-16T17:38:09.357Z,100681
2018-03-16T17:40:37.265Z,100687
2018-03-16T17:43:05.183Z,100684
2018-03-16T17:45:33.099Z,100695
2018-03-16T17:48:01.122Z,100698
2018-03-16T17:50:29.311Z,100705
2018-03-16T17:52:57.293Z,100704
2018-03-16T17:55:25.381Z,100706
2018-03-16T17:57:53.289Z,100716
2018-03-16T18:00:21.376Z,100728
2018-03-16T18:02:49.277Z,100732
2018-03-16T18:05:17.188Z,100716
2018-03-16T18:07:45.128Z,100727
2018-03-16T18:10:13.096Z,100735
2018-03-16T18:12:40.997Z,100725
2018-03-16T18:15:08.918Z,100736
2018-03-16T18:17:36.818Z,100739
2018-03-16T18:20:04.716Z,100753
2018-03-16T18:22:32.622Z,100732
2018-03-16T18:25:00.539Z,100746
2018-03-16T18:27:28.437Z,100742
2018-03-16T18:29:56.362Z,100750
2018-03-16T18:32:24.265Z,100747
2018-03-16T18:34:52.161Z,100752
2018-03-16T18:37:20.075Z,100744
2018-03-16T18:39:47.994Z,100752
2018-03-16T18:42:15.943Z,100758
2018-03-16T18:44:43.874Z,100771
2018-03-16T18:47:11.805Z,100760
2018-03-16T18:49:39.938Z,100756
2018-03-16T18:52:07.855Z,100778
2018-03-16T18:54:35.753Z,100766
2018-03-16T18:57:03.681Z,100759
2018-03-16T18:59:31.615Z,100771
2018-03-16T19:01:59.536Z,100773
2018-03-16T19:04:27.453Z,100762
2018-03-16T19:06:55.381Z,100759
2018-03-16T19:09:23.312Z,100773
2018-03-16T19:11:51.231Z,100778
2018-03-16T19:14:19.144Z,100787
2018-03-16T19:16:47.046Z,100774
2018-03-16T19:19:14.945Z,100781
2018-03-16T19:21:42.912Z,100789
2018-03-16T19:24:10.854Z,100784
2018-03-16T19:26:39.173Z,100779
2018-03-16T19:29:07.089Z,100788
2018-03-16T19:31:41.865Z,100803
2018-03-16T19:34:09.805Z,100795
2018-03-16T19:36:37.770Z,100790
2018-03-16T19:39:05.681Z,100796
2018-03-16T19:41:33.584Z,100784
2018-03-16T19:44:01.496Z,100804
2018-03-16T19:46:29.442Z,100796
2018-03-16T19:48:57.397Z,100808
2018-03-16T19:51:25.306Z,100795
2018-03-16T19:53:53.666Z,100810
2018-03-16T19:56:21.569Z,100811
2018-03-16T19:58:49.489Z,100832
2018-03-16T20:01:17.397Z,100826
2018-03-16T20:03:45.318Z,100826
2018-03-16T20:06:13.226Z,100813
2018-03-16T20:08:41.141Z,100823
2018-03-16T20:11:09.050Z,100821
2018-03-16T20:13:36.941Z,100823
2018-03-16T20:16:04.856Z,100822
2018-03-16T20:18:32.766Z,100825
2018-03-16T20:21:00.668Z,100822
2018-03-16T20:23:28.581Z,100827
2018-03-16T20:25:56.502Z,100862
2018-03-16T20:28:24.428Z,100845
2018-03-16T20:30:52.345Z,100848
2018-03-16T20:33:20.269Z,100845
2018-03-16T20:35:48.186Z,100810
2018-03-16T20:38:16.083Z,100866
2018-03-16T20:40:43.992Z,100844
2018-03-16T20:43:11.908Z,100848
2018-03-16T20:45:39.894Z,100854
2018-03-16T20:48:07.829Z,100862
2018-03-16T20:50:35.753Z,100854
2018-03-16T20:53:03.693Z,100852
2018-03-16T20:55:31.604Z,100860
2018-03-16T20:57:59.541Z,100864
2018-03-16T21:00:27.445Z,100866
2018-03-16T21:02:56.018Z,100868
2018-03-16T21:05:23.946Z,100869
2018-03-16T21:07:51.905Z,100864
2018-03-16T21:10:19.821Z,100871
2018-03-16T21:12:47.745Z,100873
2018-03-16T21:15:15.661Z,100876
2018-03-16T21:17:43.597Z,100879
2018-03-16T21:20:11.789Z,100880
2018-03-16T21:22:39.695Z,100886
2018-03-16T21:25:07.630Z,100889
2018-03-16T21:27:35.557Z,100880
2018-03-16T21:30:03.468Z,100902
2018-03-16T21:32:31.374Z,100896
2018-03-16T21:34:59.298Z,100884
2018-03-16T21:37:27.192Z,100901
2018-03-16T21:39:55.101Z,100907
2018-03-16T21:42:23.020Z,100902
2018-03-16T21:44:50.945Z,100903
2018-03-16T21:47:18.849Z,100902
2018-03-16T21:49:46.744Z,100897
2018-03-16T21:52:14.770Z,100900
2018-03-16T21:54:42.933Z,100865
2018-03-16T21:57:10.858Z,100909
2018-03-16T21:59:38.805Z,100919
2018-03-16T22:02:06.741Z,100916
2018-03-16T22:04:34.636Z,100910
2018-03-16T22:07:02.584Z,100914
2018-03-16T22:09:30.490Z,100903
2018-03-16T22:11:58.377Z,100930
2018-03-16T22:14:26.300Z,100914
2018-03-16T22:16:54.226Z,100912
2018-03-16T22:19:22.117Z,100911
2018-03-16T22:21:50.014Z,100914
2018-03-16T22:24:18.261Z,100918
2018-03-16T22:26:46.157Z,100921
2018-03-16T22:29:14.061Z,100913
2018-03-16T22:31:41.988Z,100914
2018-03-16T22:34:09.900Z,100919
2018-03-16T22:36:37.823Z,100906
2018-03-16T22:39:05.733Z,100916
2018-03-16T22:41:34.819Z,100934
2018-03-16T22:44:02.756Z,100921
2018-03-16T22:46:30.690Z,100929
2018-03-16T22:48:58.636Z,100921
2018-03-16T22:51:26.547Z,100932
2018-03-16T22:53:54.452Z,100922
2018-03-16T22:56:24.118Z,100923
2018-03-16T22:58:52.033Z,100917
2018-03-16T23:01:19.957Z,100931
2018-03-16T23:03:47.875Z,100925
2018-03-16T23:06:15.776Z,100927
2018-03-16T23:08:43.696Z,100933
2018-03-16T23:11:11.633Z,100928
2018-03-16T23:13:39.545Z,100933
2018-03-16T23:16:07.454Z,100927
2018-03-16T23:18:35.381Z,100927
2018-03-16T23:21:03.293Z,100942
2018-03-16T23:23:31.633Z,100939
2018-03-16T23:25:59.532Z,100946
2018-03-16T23:28:27.438Z,100944
2018-03-16T23:30:55.361Z,100953
2018-03-16T23:33:23.274Z,100948
2018-03-16T23:35:51.168Z,100947
2018-03-16T23:38:19.073Z,100950
2018-03-16T23:40:46.984Z,100953
2018-03-16T23:43:14.884Z,100949
2018-03-16T23:45:42.781Z,100957
2018-03-16T23:48:10.689Z,100956
2018-03-16T23:50:38.588Z,100956
2018-03-16T23:53:06.478Z,100962
2018-03-16T23:55:34.372Z,100961
2018-03-16T23:58:02.288Z,100964
